Time;durP1;ratioP1;P1;durP2;ratioP2;P2;SDS_P1;SDS_P2;PMS_P1;PMS_P2;Temp;Humidity;BMP_temperature;BMP_pressure;BME280_temperature;BME280_humidity;BME280_pressure;Samples;Min_cycle;Max_cycle;Signal;HPM_P1;HPM_P2
2024/03/02 00:00:10;;;;;;;0.10;0.10;;;;;;;;;;4974681;28;20034;-92
2024/03/02 00:02:46;;;;;;;0.10;0.10;;;7.80;99.90;;;;;;4977939;28;20041;-92
2024/03/02 00:05:13;;;;;;;0.10;0.10;;;;;;;;;;4973392;28;20027;-93
2024/03/02 00:07:43;;;;;;;0.10;0.10;;;;;;;;;;4968674;28;20030;-92
2024/03/02 00:10:13;;;;;;;0.10;0.10;;;;;;;;;;4970468;28;20043;-93
2024/03/02 00:12:39;;;;;;;;;;;;;;;;;;4973539;28;20027;-92
2024/03/02 00:15:26;;;;;;;0.08;0.08;;;7.90;99.90;;;;;;4976547;28;19913;-92
2024/03/02 00:17:55;;;;;;;0.10;0.10;;;;;;;;;;4973457;28;20508;-92
2024/03/02 00:20:27;;;;;;;0.10;0.10;;;;;;;;;;4982526;28;20038;-93
2024/03/02 00:23:00;;;;;;;0.10;0.10;;;7.70;99.90;;;;;;4971706;28;20023;-93
2024/03/02 00:25:26;;;;;;;0.10;0.10;;;;;;;;;;4986715;28;20031;-93
2024/03/02 00:27:52;;;;;;;0.10;0.10;;;;;;;;;;4972743;28;20026;-92
2024/03/02 00:30:33;;;;;;;0.00;0.00;;;;;;;;;;4975589;28;20043;-91
2024/03/02 00:32:59;;;;;;;0.10;0.10;;;;;;;;;;4969468;28;20035;-92
2024/03/02 00:35:26;;;;;;;0.10;0.10;;;;;;;;;;4971953;28;20430;-92
2024/03/02 00:37:52;;;;;;;0.10;0.10;;;;;;;;;;4975367;28;20026;-92
2024/03/02 00:40:18;;;;;;;0.10;0.10;;;;;;;;;;4971519;28;20035;-91
2024/03/02 00:42:44;;;;;;;0.10;0.10;;;;;;;;;;5003702;28;21998;-95
2024/03/02 00:45:11;;;;;;;0.10;0.10;;;;;;;;;;4998646;28;20010;-93
2024/03/02 00:47:40;;;;;;;0.10;0.10;;;;;;;;;;4975438;28;20023;-92
2024/03/02 00:50:06;;;;;;;0.03;0.03;;;;;;;;;;4979958;28;20126;-92
2024/03/02 00:52:33;;;;;;;0.10;0.10;;;;;;;;;;4973575;28;20077;-92
2024/03/02 00:54:59;;;;;;;0.10;0.10;;;;;;;;;;4964373;28;20051;-92
2024/03/02 00:57:26;;;;;;;0.10;0.10;;;;;;;;;;4977037;28;20038;-93
2024/03/02 00:59:52;;;;;;;0.10;0.10;;;;;;;;;;4978145;28;20081;-92
2024/03/02 01:02:20;;;;;;;0.10;0.10;;;;;;;;;;4971915;28;20037;-92
2024/03/02 01:04:46;;;;;;;0.10;0.10;;;;;;;;;;4987315;28;20126;-93
2024/03/02 01:07:11;;;;;;;0.10;0.10;;;;;;;;;;4970805;28;20046;-93
2024/03/02 01:09:37;;;;;;;0.10;0.10;;;;;;;;;;4974686;28;20019;-92
2024/03/02 01:12:04;;;;;;;0.10;0.10;;;;;;;;;;4970560;28;20074;-92
2024/03/02 01:14:30;;;;;;;0.10;0.10;;;;;;;;;;4972597;28;20129;-92
2024/03/02 01:16:56;;;;;;;0.10;0.10;;;;;;;;;;4973102;28;20122;-92
2024/03/02 01:19:22;;;;;;;0.10;0.10;;;;;;;;;;4968874;28;20434;-92
2024/03/02 01:21:50;;;;;;;0.10;0.10;;;;;;;;;;4969285;28;20053;-92
2024/03/02 01:24:16;;;;;;;0.10;0.10;;;;;;;;;;4970366;28;20042;-92
2024/03/02 01:26:42;;;;;;;0.10;0.10;;;;;;;;;;4973220;28;20019;-92
2024/03/02 01:29:08;;;;;;;0.10;0.10;;;;;;;;;;4971654;28;20031;-92
2024/03/02 01:31:34;;;;;;;0.10;0.10;;;;;;;;;;4974077;28;20066;-92
2024/03/02 01:34:00;;;;;;;0.10;0.10;;;;;;;;;;4973395;28;20030;-91
2024/03/02 01:36:26;;;;;;;0.10;0.10;;;;;;;;;;4970877;28;20034;-93
2024/03/02 01:38:52;;;;;;;0.10;0.10;;;;;;;;;;4972929;28;20031;-93
2024/03/02 01:41:18;;;;;;;0.10;0.10;;;;;;;;;;4972370;28;20054;-92
2024/03/02 01:43:44;;;;;;;0.10;0.10;;;;;;;;;;4969487;28;20421;-93
2024/03/02 01:46:10;;;;;;;0.10;0.10;;;;;;;;;;4971865;28;20050;-92
2024/03/02 01:48:36;;;;;;;0.10;0.10;;;;;;;;;;4982125;28;20038;-92
2024/03/02 01:51:02;;;;;;;0.00;0.00;;;;;;;;;;4976771;28;20504;-93
2024/03/02 01:53:28;;;;;;;0.10;0.10;;;;;;;;;;4975552;28;20026;-93
2024/03/02 01:55:54;;;;;;;0.10;0.10;;;;;;;;;;4974471;28;20121;-93
2024/03/02 01:58:20;;;;;;;0.05;0.05;;;;;;;;;;4978184;28;20122;-92
2024/03/02 02:00:46;;;;;;;0.10;0.10;;;;;;;;;;4972661;28;20579;-92
2024/03/02 02:03:12;;;;;;;0.03;0.03;;;;;;;;;;4980919;28;20031;-93
2024/03/02 02:05:38;;;;;;;0.10;0.10;;;;;;;;;;4972717;28;20031;-93
2024/03/02 02:08:04;;;;;;;0.10;0.10;;;;;;;;;;4977550;28;20034;-93
2024/03/02 02:10:30;;;;;;;0.00;0.00;;;;;;;;;;4979008;28;20035;-93
2024/03/02 02:12:56;;;;;;;0.10;0.10;;;;;;;;;;4970503;28;20504;-93
2024/03/02 02:15:22;;;;;;;0.10;0.10;;;;;;;;;;4971252;28;20516;-93
2024/03/02 02:17:48;;;;;;;0.10;0.10;;;;;;;;;;4978486;28;20026;-93
2024/03/02 02:20:14;;;;;;;0.10;0.10;;;;;;;;;;4973683;28;20038;-93
2024/03/02 02:22:40;;;;;;;0.10;0.10;;;;;;;;;;4973875;28;20038;-93
2024/03/02 02:25:06;;;;;;;0.05;0.05;;;;;;;;;;4979149;28;20409;-93
2024/03/02 02:27:32;;;;;;;0.10;0.10;;;;;;;;;;4973594;28;20030;-93
2024/03/02 02:29:59;;;;;;;0.10;0.10;;;;;;;;;;4972999;28;20556;-92
2024/03/02 02:32:25;;;;;;;0.10;0.10;;;;;;;;;;4972493;28;20485;-93
2024/03/02 02:34:54;;;;;;;0.00;0.00;;;;;;;;;;4977885;28;20023;-92
2024/03/02 02:37:20;;;;;;;0.10;0.10;;;;;;;;;;4978131;28;20110;-93
2024/03/02 02:39:46;;;;;;;0.00;0.00;;;;;;;;;;4973791;28;20177;-93
2024/03/02 02:42:12;;;;;;;0.10;0.10;;;;;;;;;;4974719;28;20033;-93
2024/03/02 02:44:38;;;;;;;0.10;0.10;;;;;;;;;;4978453;28;20026;-92
2024/03/02 02:47:04;;;;;;;0.10;0.10;;;;;;;;;;4972710;28;20497;-93
2024/03/02 02:49:31;;;;;;;0.10;0.10;;;7.10;99.90;;;;;;4972937;28;20038;-92
2024/03/02 02:51:57;;;;;;;0.10;0.10;;;;;;;;;;4973566;28;20026;-92
2024/03/02 02:54:23;;;;;;;0.10;0.10;;;;;;;;;;4973391;28;20564;-92
2024/03/02 02:56:49;;;;;;;0.10;0.10;;;;;;;;;;4971508;28;20042;-93
2024/03/02 02:59:15;;;;;;;0.10;0.10;;;;;;;;;;4990251;28;20131;-93
2024/03/02 03:01:41;;;;;;;0.10;0.10;;;;;;;;;;4976368;28;20074;-93
2024/03/02 03:04:07;;;;;;;0.10;0.10;;;;;;;;;;4976801;28;20033;-92
2024/03/02 03:06:33;;;;;;;0.10;0.10;;;;;;;;;;4970995;28;20069;-94
2024/03/02 03:08:58;;;;;;;0.10;0.10;;;;;;;;;;4971297;28;20031;-93
2024/03/02 03:11:26;;;;;;;0.10;0.10;;;;;;;;;;4974437;28;20030;-93
2024/03/02 03:13:53;;;;;;;0.10;0.10;;;;;;;;;;4974137;28;20030;-93
2024/03/02 03:16:19;;;;;;;0.10;0.10;;;;;;;;;;4976847;28;20430;-93
2024/03/02 03:18:45;;;;;;;0.10;0.10;;;;;;;;;;4974378;28;20029;-93
2024/03/02 03:21:11;;;;;;;0.03;0.03;;;;;;;;;;4976441;28;20470;-93
2024/03/02 03:23:37;;;;;;;0.10;0.10;;;;;;;;;;4976485;28;20078;-93
2024/03/02 03:26:04;;;;;;;0.10;0.10;;;;;;;;;;4977810;28;20050;-93
2024/03/02 03:28:30;;;;;;;0.10;0.10;;;;;;;;;;4969828;28;20041;-93
2024/03/02 03:30:56;;;;;;;0.10;0.10;;;;;;;;;;4974378;28;20038;-94
2024/03/02 03:33:22;;;;;;;0.10;0.10;;;;;;;;;;4974941;28;20031;-93
2024/03/02 03:35:48;;;;;;;0.10;0.10;;;;;;;;;;4976906;28;20110;-93
2024/03/02 03:38:14;;;;;;;0.00;0.00;;;;;;;;;;4973717;28;20457;-93
2024/03/02 03:40:40;;;;;;;0.10;0.10;;;;;;;;;;4972837;28;20031;-92
2024/03/02 03:43:06;;;;;;;0.10;0.10;;;;;;;;;;4972777;28;20030;-93
2024/03/02 03:45:32;;;;;;;0.10;0.10;;;;;;;;;;4973203;28;20077;-95
2024/03/02 03:47:58;;;;;;;0.10;0.10;;;;;;;;;;4975572;28;20027;-93
2024/03/02 03:50:24;;;;;;;0.10;0.10;;;;;;;;;;4972716;28;20548;-93
2024/03/02 03:52:50;;;;;;;0.10;0.10;;;;;;;;;;4975301;28;20122;-93
2024/03/02 03:55:16;;;;;;;0.10;0.10;;;;;;;;;;4980522;28;20036;-93
2024/03/02 03:57:42;;;;;;;0.10;0.10;;;;;;;;;;4973520;28;20023;-93
2024/03/02 04:00:10;;;;;;;0.10;0.10;;;;;;;;;;4977739;28;20497;-93
2024/03/02 04:02:37;;;;;;;0.00;0.00;;;;;;;;;;4972832;28;20039;-93
2024/03/02 04:05:04;;;;;;;0.10;0.10;;;;;;;;;;4973680;28;20113;-93
2024/03/02 04:07:31;;;;;;;0.10;0.10;;;;;;;;;;4972118;28;20031;-93
2024/03/02 04:09:57;;;;;;;0.05;0.05;;;;;;;;;;4974195;28;20497;-93
2024/03/02 04:12:23;;;;;;;0.10;0.10;;;;;;;;;;4973836;28;20030;-93
2024/03/02 04:14:49;;;;;;;0.10;0.10;;;;;;;;;;4973765;28;20058;-93
2024/03/02 04:17:15;;;;;;;0.10;0.10;;;;;;;;;;4979838;28;20101;-92
2024/03/02 04:19:42;;;;;;;0.10;0.10;;;;;;;;;;4973745;28;20113;-92
2024/03/02 04:22:08;;;;;;;0.00;0.00;;;;;;;;;;4977611;28;20038;-93
2024/03/02 04:24:34;;;;;;;0.10;0.10;;;;;;;;;;4979974;28;20113;-93
2024/03/02 04:27:00;;;;;;;0.10;0.10;;;;;;;;;;4968538;28;20397;-92
2024/03/02 04:29:26;;;;;;;0.10;0.10;;;;;;;;;;4969969;28;20037;-93
2024/03/02 04:31:52;;;;;;;0.10;0.10;;;;;;;;;;4973598;28;20041;-94
2024/03/02 04:34:18;;;;;;;0.10;0.10;;;;;;;;;;4972581;28;20082;-91
2024/03/02 04:36:44;;;;;;;0.10;0.10;;;;;;;;;;4975296;28;20054;-92
2024/03/02 04:39:10;;;;;;;0.10;0.10;;;;;;;;;;4974213;28;20130;-91
2024/03/02 04:41:36;;;;;;;0.10;0.10;;;;;;;;;;4972559;28;20101;-92
2024/03/02 04:44:02;;;;;;;0.10;0.10;;;;;;;;;;4969388;28;20101;-92
2024/03/02 04:46:28;;;;;;;0.10;0.10;;;;;;;;;;4966788;28;20042;-92
2024/03/02 04:48:56;;;;;;;0.10;0.10;;;;;;;;;;4968191;28;20018;-92
2024/03/02 04:51:22;;;;;;;0.10;0.10;;;;;;;;;;4971685;28;20429;-92
2024/03/02 04:53:48;;;;;;;0.10;0.10;;;;;;;;;;4971797;28;20146;-92
2024/03/02 04:58:59;;;;;;;0.10;0.10;;;;;;;;;;4976050;28;20049;-92
2024/03/02 05:01:25;;;;;;;0.10;0.10;;;;;;;;;;4970492;28;20031;-92
2024/03/02 05:03:51;;;;;;;0.10;0.10;;;;;;;;;;4969790;28;20023;-92
2024/03/02 05:06:17;;;;;;;0.10;0.10;;;;;;;;;;4975067;28;20058;-92
2024/03/02 05:08:44;;;;;;;0.10;0.10;;;;;;;;;;4970199;28;20027;-93
2024/03/02 05:13:56;;;;;;;0.10;0.10;;;;;;;;;;4971886;28;20081;-92
2024/03/02 05:16:22;;;;;;;0.10;0.10;;;;;;;;;;4971028;28;20073;-92
2024/03/02 05:18:48;;;;;;;0.10;0.10;;;;;;;;;;4972959;28;20028;-92
2024/03/02 05:21:14;;;;;;;0.10;0.10;;;;;;;;;;4974115;28;20034;-92
2024/03/02 05:23:40;;;;;;;0.10;0.10;;;;;;;;;;4978743;28;20031;-91
2024/03/02 05:26:06;;;;;;;0.10;0.10;;;;;;;;;;4975287;28;20560;-92
2024/03/02 05:28:32;;;;;;;0.10;0.10;;;;;;;;;;4980420;28;21578;-92
2024/03/02 05:30:58;;;;;;;0.10;0.10;;;;;;;;;;4975836;28;20026;-91
2024/03/02 05:33:24;;;;;;;0.10;0.10;;;;;;;;;;4986815;28;20030;-92
2024/03/02 05:35:50;;;;;;;0.10;0.10;;;;;;;;;;4968690;28;20035;-92
2024/03/02 05:38:16;;;;;;;0.00;0.00;;;;;;;;;;4975174;28;20059;-92
2024/03/02 05:40:42;;;;;;;0.10;0.10;;;;;;;;;;4973399;28;20174;-93
2024/03/02 05:43:08;;;;;;;0.10;0.10;;;;;;;;;;4971651;28;20041;-92
2024/03/02 05:45:34;;;;;;;0.10;0.10;;;;;;;;;;4978282;28;20031;-93
2024/03/02 05:48:00;;;;;;;0.10;0.10;;;;;;;;;;4991667;28;20037;-92
2024/03/02 05:50:26;;;;;;;0.10;0.10;;;;;;;;;;4992443;28;20030;-93
2024/03/02 05:52:52;;;;;;;0.10;0.10;;;;;;;;;;4984023;28;20074;-92
2024/03/02 05:55:18;;;;;;;0.10;0.10;;;;;;;;;;4977328;28;20027;-93
2024/03/02 06:00:10;;;;;;;0.10;0.10;;;;;;;;;;4976512;28;20412;-92
2024/03/02 06:02:39;;;;;;;0.10;0.10;;;;;;;;;;4976093;28;20046;-92
2024/03/02 06:05:06;;;;;;;0.10;0.10;;;;;;;;;;4976186;28;20027;-92
2024/03/02 06:07:32;;;;;;;0.00;0.00;;;;;;;;;;4976265;28;20032;-91
2024/03/02 06:09:58;;;;;;;0.10;0.10;;;;;;;;;;4972635;28;20046;-92
2024/03/02 06:12:24;;;;;;;0.10;0.10;;;;;;;;;;4976947;28;20084;-93
2024/03/02 06:14:50;;;;;;;0.10;0.10;;;;;;;;;;4973786;28;20074;-92
2024/03/02 06:17:16;;;;;;;0.10;0.10;;;;;;;;;;4975548;28;20037;-92
2024/03/02 06:19:42;;;;;;;0.10;0.10;;;;;;;;;;4976083;28;20120;-92
2024/03/02 06:22:10;;;;;;;0.10;0.10;;;;;;;;;;4974117;28;20026;-92
2024/03/02 06:24:37;;;;;;;0.10;0.10;;;;;;;;;;4973648;28;20098;-93
2024/03/02 06:27:04;;;;;;;0.10;0.10;;;;;;;;;;4974848;28;20039;-93
2024/03/02 06:29:30;;;;;;;0.10;0.10;;;;;;;;;;4975898;28;20038;-92
2024/03/02 06:31:56;;;;;;;0.10;0.10;;;;;;;;;;4975887;28;20026;-92
2024/03/02 06:34:22;;;;;;;0.10;0.10;;;;;;;;;;4972889;28;20053;-92
2024/03/02 06:36:48;;;;;;;0.10;0.10;;;;;;;;;;4978457;28;20030;-92
2024/03/02 06:39:14;;;;;;;0.10;0.10;;;;;;;;;;4977782;28;20035;-92
2024/03/02 06:41:40;;;;;;;0.10;0.10;;;;;;;;;;4973246;28;20089;-92
2024/03/02 06:44:06;;;;;;;0.10;0.10;;;;;;;;;;4973629;28;20117;-93
2024/03/02 06:46:32;;;;;;;0.10;0.10;;;;;;;;;;4973049;28;20023;-92
2024/03/02 06:48:58;;;;;;;0.10;0.10;;;;;;;;;;4969657;28;20031;-92
2024/03/02 06:51:24;;;;;;;0.10;0.10;;;;;;;;;;4975475;28;20089;-93
2024/03/02 06:53:50;;;;;;;0.10;0.10;;;;;;;;;;4973704;28;20382;-92
2024/03/02 06:56:16;;;;;;;0.10;0.10;;;;;;;;;;4975689;28;20042;-92
2024/03/02 06:58:43;;;;;;;0.10;0.10;;;;;;;;;;4975050;28;20045;-92
2024/03/02 07:01:09;;;;;;;0.10;0.10;;;;;;;;;;4974417;28;20070;-92
2024/03/02 07:03:35;;;;;;;0.10;0.10;;;;;;;;;;4967926;28;20049;-93
2024/03/02 07:06:01;;;;;;;0.10;0.10;;;;;;;;;;4975711;28;20031;-92
2024/03/02 07:08:27;;;;;;;0.10;0.10;;;;;;;;;;4973987;28;20049;-92
2024/03/02 07:10:53;;;;;;;0.10;0.10;;;;;;;;;;4974572;28;20039;-93
2024/03/02 07:13:20;;;;;;;0.10;0.10;;;;;;;;;;4970265;28;20046;-92
2024/03/02 07:18:30;;;;;;;0.10;0.10;;;;;;;;;;4977033;28;20039;-92
2024/03/02 07:21:00;;;;;;;0.10;0.10;;;;;;;;;;4974676;28;20126;-92
2024/03/02 07:23:27;;;;;;;0.10;0.10;;;;;;;;;;4971517;28;20031;-93
2024/03/02 07:25:56;;;;;;;0.10;0.10;;;;;;;;;;4977527;28;20069;-92
2024/03/02 07:28:26;;;;;;;0.10;0.10;;;7.60;99.90;;;;;;4977973;28;20046;-93
2024/03/02 07:31:01;;;;;;;0.10;0.10;;;;;;;;;;4986534;28;20035;-92
2024/03/02 07:33:27;;;;;;;0.10;0.10;;;;;;;;;;4975203;28;20054;-93
2024/03/02 07:35:54;;;;;;;0.10;0.10;;;;;;;;;;4983024;28;20035;-93
2024/03/02 07:38:21;;;;;;;0.10;0.10;;;;;;;;;;4996406;28;20027;-96
2024/03/02 07:40:47;;;;;;;0.10;0.10;;;;;;;;;;4992344;28;20043;-95
2024/03/02 07:43:13;;;;;;;0.10;0.10;;;;;;;;;;4987064;28;20035;-93
2024/03/02 07:45:39;;;;;;;0.10;0.10;;;;;;;;;;4994553;28;20065;-93
2024/03/02 07:48:05;;;;;;;0.08;0.08;;;;;;;;;;4977488;28;20038;-92
2024/03/02 07:50:31;;;;;;;0.10;0.10;;;;;;;;;;4980366;28;20058;-93
2024/03/02 07:52:57;;;;;;;0.10;0.10;;;;;;;;;;4981289;28;20038;-92
2024/03/02 07:55:25;;;;;;;0.10;0.10;;;;;;;;;;4979096;28;20034;-93
2024/03/02 07:57:51;;;;;;;0.10;0.10;;;;;;;;;;4980377;28;20485;-92
2024/03/02 08:01:11;;;;;;;0.00;0.00;;;8.00;99.90;;;;;;4977025;28;20038;-93
2024/03/02 08:06:41;;;;;;;0.10;0.10;;;;;;;;;;4978017;28;20110;-93
2024/03/02 08:09:10;;;;;;;0.10;0.10;;;;;;;;;;4979385;28;20054;-92
2024/03/02 08:11:37;;;;;;;0.10;0.10;;;;;;;;;;4975830;28;20043;-92
2024/03/02 08:14:03;;;;;;;0.05;0.05;;;;;;;;;;4966257;28;20042;-93
2024/03/02 08:16:29;;;;;;;0.10;0.10;;;;;;;;;;4973484;28;20037;-92
2024/03/02 08:18:57;;;;;;;0.10;0.10;;;;;;;;;;4974009;28;20049;-91
2024/03/02 08:21:23;;;;;;;0.10;0.10;;;;;;;;;;4976282;28;20031;-93
2024/03/02 08:23:51;;;;;;;0.10;0.10;;;;;;;;;;4976459;28;20034;-92
2024/03/02 08:26:17;;;;;;;0.10;0.10;;;;;;;;;;4959797;28;20049;-92
2024/03/02 08:28:43;;;;;;;0.10;0.10;;;;;;;;;;4977023;28;20422;-92
2024/03/02 08:31:09;;;;;;;0.10;0.10;;;;;;;;;;4980366;28;20035;-93
2024/03/02 08:33:35;;;;;;;0.10;0.10;;;;;;;;;;4973760;28;20041;-93
2024/03/02 08:36:02;;;;;;;0.10;0.10;;;;;;;;;;4975953;28;20074;-93
2024/03/02 08:38:29;;;;;;;0.10;0.10;;;;;;;;;;4972885;28;20031;-92
2024/03/02 08:53:50;;;;;;;0.10;0.10;;;;;;;;;;4976158;28;20050;-91
2024/03/02 08:56:16;;;;;;;0.10;0.10;;;;;;;;;;4992446;28;20073;-88
2024/03/02 08:58:42;;;;;;;0.10;0.10;;;9.30;99.90;;;;;;4978545;28;20088;-90
2024/03/02 09:01:08;;;;;;;0.08;0.08;;;;;;;;;;4978596;28;20534;-91
2024/03/02 09:03:35;;;;;;;0.10;0.10;;;;;;;;;;4976721;28;20026;-91
2024/03/02 09:06:01;;;;;;;0.10;0.10;;;;;;;;;;4970060;28;20032;-89
2024/03/02 09:08:27;;;;;;;0.10;0.10;;;;;;;;;;4971126;28;20026;-90
2024/03/02 09:10:53;;;;;;;0.10;0.10;;;;;;;;;;4976515;28;20785;-90
2024/03/02 09:13:19;;;;;;;0.10;0.10;;;;;;;;;;4964358;28;20524;-91
2024/03/02 09:15:45;;;;;;;0.10;0.10;;;;;;;;;;4971809;28;20515;-91
2024/03/02 09:18:11;;;;;;;0.10;0.10;;;;;;;;;;4973223;28;20113;-89
2024/03/02 09:20:37;;;;;;;0.10;0.10;;;;;;;;;;4973987;28;20030;-91
2024/03/02 09:23:03;;;;;;;0.00;0.00;;;;;;;;;;4973370;28;20074;-91
2024/03/02 09:25:29;;;;;;;0.08;0.08;;;;;;;;;;4969086;28;20035;-90
2024/03/02 09:27:55;;;;;;;0.08;0.08;;;;;;;;;;4973134;28;20114;-91
2024/03/02 09:30:21;;;;;;;0.10;0.10;;;;;;;;;;4969213;28;20474;-91
2024/03/02 09:32:47;;;;;;;0.10;0.10;;;;;;;;;;4970730;28;20094;-89
2024/03/02 09:35:13;;;;;;;0.10;0.10;;;;;;;;;;4974140;28;20394;-89
2024/03/02 09:37:38;;;;;;;0.10;0.10;;;;;;;;;;4974084;28;20440;-90
2024/03/02 09:40:06;;;;;;;0.00;0.00;;;;;;;;;;4969635;28;20039;-90
2024/03/02 09:42:32;;;;;;;0.10;0.10;;;;;;;;;;4972481;28;20077;-93
2024/03/02 09:44:58;;;;;;;0.10;0.10;;;;;;;;;;4985026;28;20031;-91
2024/03/02 09:47:24;;;;;;;0.00;0.00;;;;;;;;;;4965858;28;20030;-90
2024/03/02 09:49:57;;;;;;;0.10;0.10;;;;;;;;;;4961836;28;20141;-92
2024/03/02 10:00:04;;;;;;;0.10;0.10;;;10.70;99.90;;;;;;4972663;28;20540;-88
2024/03/02 10:02:30;;;;;;;0.00;0.00;;;;;;;;;;4983698;28;20035;-88
2024/03/02 10:04:56;;;;;;;0.00;0.00;;;;;;;;;;4967655;28;20041;-91
2024/03/02 10:07:21;;;;;;;0.00;0.00;;;;;;;;;;4978106;28;20465;-90
2024/03/02 10:09:48;;;;;;;0.00;0.00;;;10.90;99.90;;;;;;4975738;28;20030;-90
2024/03/02 10:12:16;;;;;;;0.00;0.00;;;11.00;99.90;;;;;;4969605;28;20058;-91
2024/03/02 10:14:42;;;;;;;0.00;0.00;;;;;;;;;;4970450;28;20175;-89
2024/03/02 10:17:10;;;;;;;0.00;0.00;;;11.10;99.90;;;;;;4974287;28;20034;-90
2024/03/02 10:19:36;;;;;;;0.00;0.00;;;;;;;;;;4975777;28;20038;-88
2024/03/02 10:22:06;;;;;;;0.00;0.00;;;11.30;99.90;;;;;;4977842;28;20034;-90
2024/03/02 10:24:40;;;;;;;0.00;0.00;;;11.40;99.90;;;;;;4975156;28;20026;-90
2024/03/02 10:27:17;;;;;;;0.00;0.00;;;11.70;99.90;;;;;;4975320;28;20066;-91
2024/03/02 10:29:43;;;;;;;0.00;0.00;;;;;;;;;;4977307;28;20038;-90
2024/03/02 10:32:11;;;;;;;0.00;0.00;;;11.50;99.90;;;;;;4977524;28;20045;-91
2024/03/02 10:34:37;;;;;;;0.00;0.00;;;;;;;;;;4978467;28;20445;-90
2024/03/02 10:37:03;;;;;;;0.00;0.00;;;;;;;;;;4976458;28;20033;-90
2024/03/02 10:39:29;;;;;;;0.00;0.00;;;;;;;;;;4974899;28;20034;-91
2024/03/02 10:41:56;;;;;;;0.05;0.05;;;11.50;99.90;;;;;;4975922;28;20106;-91
2024/03/02 10:44:23;;;;;;;0.00;0.00;;;;;;;;;;4973409;28;20034;-90
2024/03/02 10:46:52;;;;;;;0.00;0.00;;;11.60;99.90;;;;;;4975661;28;20549;-90
2024/03/02 10:49:20;;;;;;;0.00;0.00;;;11.60;99.90;;;;;;4973090;28;20500;-90
2024/03/02 10:51:46;;;;;;;0.00;0.00;;;;;;;;;;4976812;28;20106;-89
2024/03/02 10:54:12;;;;;;;0.00;0.00;;;;;;;;;;4978649;28;20054;-91
2024/03/02 10:56:44;;;;;;;0.00;0.00;;;11.70;99.90;;;;;;4973778;28;20408;-90
2024/03/02 10:59:31;;;;;;;0.00;0.00;;;11.80;99.90;;;;;;4990013;28;20041;-89
2024/03/02 11:01:59;;;;;;;0.00;0.00;;;11.80;99.90;;;;;;4973829;28;20062;-89
2024/03/02 11:04:28;;;;;;;0.00;0.00;;;11.80;99.90;;;;;;4979655;28;20030;-90
2024/03/02 11:07:06;;;;;;;0.00;0.00;;;11.90;99.90;;;;;;4976088;28;20077;-89
2024/03/02 11:09:35;;;;;;;0.00;0.00;;;11.90;99.90;;;;;;4974650;28;20031;-89
2024/03/02 11:12:06;;;;;;;0.00;0.00;;;11.90;99.90;;;;;;4975497;28;20033;-90
2024/03/02 11:14:35;;;;;;;0.00;0.00;;;11.80;99.90;;;;;;4976927;28;20027;-90
2024/03/02 11:17:03;;;;;;;0.00;0.00;;;12.00;99.90;;;;;;4975187;28;20133;-90
2024/03/02 11:19:30;;;;;;;0.00;0.00;;;12.00;99.90;;;;;;4970712;28;20042;-89
2024/03/02 11:21:56;;;;;;;0.00;0.00;;;;;;;;;;4975984;28;20054;-90
2024/03/02 11:24:27;;;;;;;0.00;0.00;;;;;;;;;;4977027;28;20027;-91
2024/03/02 11:26:53;;;;;;;0.00;0.00;;;;;;;;;;4972988;28;20802;-90
2024/03/02 11:29:37;;;;;;;0.00;0.00;;;12.00;99.90;;;;;;4976137;28;20488;-89
2024/03/02 11:32:04;;;;;;;0.00;0.00;;;12.10;99.90;;;;;;4977169;28;20035;-91
2024/03/02 11:34:31;;;;;;;0.00;0.00;;;12.20;99.90;;;;;;4979055;28;20510;-90
2024/03/02 11:36:58;;;;;;;0.00;0.00;;;13.50;99.90;;;;;;4974349;28;20077;-90
2024/03/02 11:39:24;;;;;;;0.00;0.00;;;;;;;;;;4974771;28;20050;-89
2024/03/02 11:41:50;;;;;;;0.00;0.00;;;12.30;99.90;;;;;;4974311;28;20034;-89
2024/03/02 11:44:16;;;;;;;0.00;0.00;;;;;;;;;;4982664;28;20026;-89
2024/03/02 11:46:42;;;;;;;0.00;0.00;;;;;;;;;;4973705;28;20023;-89
2024/03/02 11:49:09;;;;;;;0.00;0.00;;;12.50;99.90;;;;;;4980292;28;20050;-89
2024/03/02 11:51:35;;;;;;;0.00;0.00;;;;;;;;;;4975681;28;20099;-89
2024/03/02 11:54:04;;;;;;;0.00;0.00;;;12.70;99.90;;;;;;4972461;28;20027;-90
2024/03/02 11:56:31;;;;;;;0.00;0.00;;;12.70;99.90;;;;;;4973041;28;20035;-89
2024/03/02 11:58:57;;;;;;;0.00;0.00;;;;;;;;;;4972979;28;20042;-89
2024/03/02 12:01:24;;;;;;;0.00;0.00;;;;;;;;;;4973987;28;20030;-90
2024/03/02 12:03:50;;;;;;;0.00;0.00;;;;;;;;;;4969992;28;20027;-89
2024/03/02 12:06:16;;;;;;;0.00;0.00;;;;;;;;;;4987069;28;20482;-89
2024/03/02 12:08:43;;;;;;;0.00;0.00;;;;;;;;;;4972900;28;20082;-89
2024/03/02 12:11:09;;;;;;;0.00;0.00;;;;;;;;;;4974472;28;20065;-90
2024/03/02 12:13:35;;;;;;;0.00;0.00;;;;;;;;;;4972431;28;20026;-89
2024/03/02 12:16:00;;;;;;;0.00;0.00;;;;;;;;;;4969307;28;20058;-90
2024/03/02 12:18:26;;;;;;;0.00;0.00;;;;;;;;;;4969806;28;20113;-88
2024/03/02 12:20:52;;;;;;;0.00;0.00;;;;;;;;;;4968650;28;20031;-89
2024/03/02 12:23:19;;;;;;;0.00;0.00;;;13.20;99.90;;;;;;4973717;28;20054;-90
2024/03/02 12:26:57;;;;;;;0.00;0.00;;;13.20;99.90;;;;;;4969226;28;20409;-87
2024/03/02 12:29:31;;;;;;;0.00;0.00;;;;;;;;;;4935597;29;20045;-89
2024/03/02 12:31:57;;;;;;;0.00;0.00;;;;;;;;;;4914942;29;20036;-89
2024/03/02 12:34:23;;;;;;;0.00;0.00;;;;;;;;;;4936872;29;20114;-90
2024/03/02 12:36:52;;;;;;;0.00;0.00;;;;;;;;;;4914795;29;20028;-89
2024/03/02 12:39:18;;;;;;;0.10;0.10;;;;;;;;;;4919118;28;20023;-89
2024/03/02 12:41:44;;;;;;;0.00;0.00;;;;;;;;;;4978207;28;20038;-90
2024/03/02 12:44:10;;;;;;;0.00;0.00;;;;;;;;;;4972715;28;20039;-89
2024/03/02 12:46:36;;;;;;;0.00;0.00;;;;;;;;;;4975267;28;20029;-89
2024/03/02 12:49:09;;;;;;;0.00;0.00;;;13.50;99.90;;;;;;4971047;28;20035;-86
2024/03/02 12:51:36;;;;;;;0.00;0.00;;;;;;;;;;4977740;28;20656;-90
2024/03/02 12:54:02;;;;;;;0.00;0.00;;;;;;;;;;4975430;28;20098;-90
2024/03/02 12:56:27;;;;;;;0.00;0.00;;;13.70;99.90;;;;;;4965845;28;20101;-87
2024/03/02 12:58:54;;;;;;;0.00;0.00;;;13.60;99.90;;;;;;4970784;28;20134;-89
2024/03/02 13:01:20;;;;;;;0.00;0.00;;;;;;;;;;4973608;28;20074;-90
2024/03/02 13:03:52;;;;;;;0.00;0.00;;;13.70;99.90;;;;;;4973002;28;20109;-85
2024/03/02 13:06:18;;;;;;;0.00;0.00;;;;;;;;;;4971488;28;20027;-90
2024/03/02 13:08:45;;;;;;;0.00;0.00;;;13.80;99.90;;;;;;4984993;28;20465;-89
2024/03/02 13:11:11;;;;;;;0.00;0.00;;;;;;;;;;4967483;28;20043;-90
2024/03/02 13:13:37;;;;;;;0.00;0.00;;;;;;;;;;4970688;28;20620;-90
2024/03/02 13:16:04;;;;;;;0.00;0.00;;;13.60;99.90;;;;;;4965524;28;20517;-89
2024/03/02 13:18:31;;;;;;;0.00;0.00;;;;;;;;;;4987711;28;20457;-89
2024/03/02 13:20:57;;;;;;;0.00;0.00;;;;;;;;;;4972867;28;20050;-89
2024/03/02 13:23:23;;;;;;;0.00;0.00;;;;;;;;;;4972478;28;20062;-89
2024/03/02 13:25:48;;;;;;;0.00;0.00;;;13.80;99.90;;;;;;4971802;28;20039;-90
2024/03/02 13:28:15;;;;;;;0.00;0.00;;;;;;;;;;4972966;28;20193;-90
2024/03/02 13:30:41;;;;;;;0.00;0.00;;;;;;;;;;4980933;28;20393;-90
2024/03/02 13:33:07;;;;;;;0.00;0.00;;;;;;;;;;4975991;28;20041;-90
2024/03/02 13:35:32;;;;;;;0.00;0.00;;;13.90;99.90;;;;;;4974602;28;20027;-90
2024/03/02 13:37:58;;;;;;;0.00;0.00;;;;;;;;;;4974043;28;20034;-89
2024/03/02 13:40:24;;;;;;;0.00;0.00;;;;;;;;;;4975428;28;20078;-89
2024/03/02 13:42:51;;;;;;;0.00;0.00;;;;;;;;;;4975037;28;20034;-89
2024/03/02 13:45:17;;;;;;;0.00;0.00;;;;;;;;;;4975872;28;20448;-90
2024/03/02 13:47:44;;;;;;;0.00;0.00;;;;;;;;;;4981863;28;20054;-90
2024/03/02 13:50:10;;;;;;;0.00;0.00;;;;;;;;;;4976325;28;20031;-89
2024/03/02 13:52:35;;;;;;;0.00;0.00;;;;;;;;;;4974423;28;20030;-91
2024/03/02 13:55:02;;;;;;;0.00;0.00;;;;;;;;;;4973328;28;20035;-91
2024/03/02 13:57:28;;;;;;;0.00;0.00;;;;;;;;;;4987959;28;20110;-90
2024/03/02 13:59:54;;;;;;;0.08;0.08;;;;;;;;;;4988283;28;20070;-90
2024/03/02 14:02:20;;;;;;;0.00;0.00;;;;;;;;;;4974846;28;20081;-90
2024/03/02 14:04:49;;;;;;;0.00;0.00;;;;;;;;;;4973088;28;20027;-90
2024/03/02 14:07:15;;;;;;;0.00;0.00;;;;;;;;;;4986976;28;20026;-91
2024/03/02 14:09:41;;;;;;;0.00;0.00;;;;;;;;;;4971108;28;20031;-91
2024/03/02 14:12:07;;;;;;;0.00;0.00;;;;;;;;;;4986590;28;20095;-90
2024/03/02 14:14:33;;;;;;;0.00;0.00;;;;;;;;;;4974046;28;20105;-90
2024/03/02 14:17:06;;;;;;;0.00;0.00;;;;;;;;;;4974183;28;20031;-91
2024/03/02 14:19:32;;;;;;;0.00;0.00;;;;;;;;;;4965692;28;20481;-91
2024/03/02 14:21:59;;;;;;;0.00;0.00;;;;;;;;;;4989355;28;20038;-88
2024/03/02 14:24:25;;;;;;;0.00;0.00;;;;;;;;;;4971860;28;20073;-91
2024/03/02 14:26:52;;;;;;;0.00;0.00;;;14.30;99.80;;;;;;4976196;28;20022;-91
2024/03/02 14:29:18;;;;;;;0.00;0.00;;;;;;;;;;4970600;28;20042;-91
2024/03/02 14:31:47;;;;;;;0.00;0.00;;;;;;;;;;4971680;28;20037;-90
2024/03/02 14:34:13;;;;;;;0.00;0.00;;;;;;;;;;4970640;28;20026;-91
2024/03/02 14:36:39;;;;;;;0.00;0.00;;;;;;;;;;4987919;28;20050;-91
2024/03/02 14:39:10;;;;;;;0.00;0.00;;;;;;;;;;4973038;28;20042;-89
2024/03/02 14:41:35;;;;;;;0.00;0.00;;;;;;;;;;4977334;28;20035;-89
2024/03/02 14:44:01;;;;;;;0.00;0.00;;;;;;;;;;4978252;28;20035;-91
2024/03/02 14:46:27;;;;;;;0.00;0.00;;;;;;;;;;4976798;28;20035;-90
2024/03/02 14:48:53;;;;;;;0.00;0.00;;;;;;;;;;4976989;28;20034;-91
2024/03/02 14:51:19;;;;;;;0.00;0.00;;;;;;;;;;4975940;28;20038;-90
2024/03/02 14:53:45;;;;;;;0.00;0.00;;;;;;;;;;4976359;28;20416;-91
2024/03/02 14:56:13;;;;;;;0.00;0.00;;;;;;;;;;4976868;28;20037;-91
2024/03/02 14:58:39;;;;;;;0.00;0.00;;;;;;;;;;4973092;28;20046;-90